Terminal Aerodrome Forecast
Issued by NWS Green Bay, WI

Home | Current Version | Previous Version | Graphics & Text | Print | Product List | Glossary On
Versions: 1 2 3 4 5 6 7 8 9 10 11 12 13 14 15 16 17 18 19 20 21 22 23 24 25 26 27 28 29 30 31 32 33 34 35 36 37 38 39 40
000
FTUS43 KGRB 231736
TAFGRB
TAF
KGRB 231736Z 2318/2418 04012KT P6SM VCSH BKN015 OVC026
      TEMPO 2319/2323 6SM -SHRA OVC012
     FM240200 03010G16KT P6SM -SHRA OVC015
     FM240600 03013G19KT P6SM -SHRA OVC009
     FM241600 04015G21KT P6SM -SHRA OVC013=

USA.gov is the U.S. government's official web portal to all federal, state and local government web resources and services.